Alexandria, MN

12:59 PM CST on February 06, 2016 (GMT -0600)
Burgen Sunrise | | Change Station
CLOSE
Current Station
Personal Weather Station
Location: Alexandria, MN
Elevation: 1398 ft
Nearby Weather Stations
Active Advisory: Blizzard Watch

Elev 1398 ft 45.86 °N, 95.35 °W | Updated 8 seconds ago

Overcast
Overcast
38.5 °F
Feels Like 32 °F
N
10.5
Wind Variable Wind from SW
Gusts 12.3 mph

Today
High -- | Low -- °F
--% Chance of Precip.
Yesterday
High -- | Low -- °F
Precip. -- in
Pressure 29.90 in
Visibility 10.0 miles
Clouds Overcast 8500 ft
Windchill 32 °F
Dew Point 25 °F
Humidity 57%
Rainfall 0.02 in
Snow Depth Not available.
7:37 AM 5:33 PM
Waning Crescent, 4% visible
METAR KAXN 061853Z AUTO 21015G22KT 10SM OVC085 03/M04 A2984 RMK AO2 SNB12E22 SLP125 P0000 T00281044
Pressure 29.90 in
Visibility 10.0 miles
Clouds Overcast 8500 ft
Windchill 32 °F
Dew Point 25 °F
Humidity 57%
Rainfall 0.02 in
Snow Depth Not available.
7:37 AM 5:33 PM
Waning Crescent, 4% visible
METAR KAXN 061853Z AUTO 21015G22KT 10SM OVC085 03/M04 A2984 RMK AO2 SNB12E22 SLP125 P0000 T00281044

10-Day Weather Forecast

Almanac

Astronomy

Feb. 06, 2016 Rise Set
Actual Time
Civil Twilight
Nautical Twilight
Astronomical Twilight
Moon
Length of Visible Light
Length of Day
Tomorrow will be .
, % of the Moon is Illuminated

Today's Extremes

State Highs State Lows

Community

WunderPhotos

Upload Photos

1,891,033 photos uploaded!

WunderBlog® & News

Nearby

Air Quality

  Air Quality AQ Index Pollutant
Not available.

Snow Depth

Station Depth Elevation

Earthquake Activity

City Distance Mag. Time & Date
Minimum magnitude displayed is 2.5.

Coastal Water Temperatures

Place Temperature

Stations

Nearby Weather Stations

Station Location Temp. Windchill Dew Point Humidity Wind Precip. Elev Updated Type
                   

Watches & Warnings

Blizzard Watch
Issued: 10:46 AM CST Feb. 6, 2016 – National Weather Service

... Blizzard watch remains in effect from Sunday morning through
late Sunday night...

* blizzard conditions are possible from Sunday morning through
early Monday morning.

* Winds gusting as high as 50 mph could cause whiteout
conditions in blowing snow. Significant drifting of the snow
is likely.

* Total snow accumulations of up to 2 inches are possible.

* Travel could be very difficult or impossible.

Precautionary/preparedness actions...

A blizzard watch means there is a potential for falling and
blowing snow with strong winds and extremely poor visibilities.
This can lead to whiteout conditions and make travel very
dangerous.